sensor_id;sensor_type;location;lat;lon;timestamp;temperature;humidity
64484;DHT22;50862;51.642;7.964;2022-07-30T00:02:10;18.10;99.90
64484;DHT22;50862;51.642;7.964;2022-07-30T00:04:38;17.00;99.90
64484;DHT22;50862;51.642;7.964;2022-07-30T00:07:08;17.20;99.90
64484;DHT22;50862;51.642;7.964;2022-07-30T00:09:36;17.80;99.90
64484;DHT22;50862;51.642;7.964;2022-07-30T00:12:06;16.90;99.90
64484;DHT22;50862;51.642;7.964;2022-07-30T00:14:35;18.10;99.90
64484;DHT22;50862;51.642;7.964;2022-07-30T00:17:03;17.80;99.90
64484;DHT22;50862;51.642;7.964;2022-07-30T00:19:32;17.90;99.90
64484;DHT22;50862;51.642;7.964;2022-07-30T00:22:01;17.40;99.90
64484;DHT22;50862;51.642;7.964;2022-07-30T00:24:30;17.20;99.90
64484;DHT22;50862;51.642;7.964;2022-07-30T00:26:59;17.30;99.90
64484;DHT22;50862;51.642;7.964;2022-07-30T00:29:28;18.00;99.90
64484;DHT22;50862;51.642;7.964;2022-07-30T00:31:56;17.30;99.90
64484;DHT22;50862;51.642;7.964;2022-07-30T00:34:24;17.40;99.90
64484;DHT22;50862;51.642;7.964;2022-07-30T00:36:53;17.10;99.90
64484;DHT22;50862;51.642;7.964;2022-07-30T00:39:21;17.90;99.90
64484;DHT22;50862;51.642;7.964;2022-07-30T00:41:54;17.60;99.90
64484;DHT22;50862;51.642;7.964;2022-07-30T00:44:23;17.30;99.90
64484;DHT22;50862;51.642;7.964;2022-07-30T00:46:51;17.10;99.90
64484;DHT22;50862;51.642;7.964;2022-07-30T00:49:20;17.20;99.90
64484;DHT22;50862;51.642;7.964;2022-07-30T00:51:49;17.20;99.90
64484;DHT22;50862;51.642;7.964;2022-07-30T00:54:17;18.00;99.90
64484;DHT22;50862;51.642;7.964;2022-07-30T00:56:47;16.90;99.90
64484;DHT22;50862;51.642;7.964;2022-07-30T00:59:16;17.20;99.90
64484;DHT22;50862;51.642;7.964;2022-07-30T01:01:44;17.20;99.90
64484;DHT22;50862;51.642;7.964;2022-07-30T01:04:13;17.10;99.90
64484;DHT22;50862;51.642;7.964;2022-07-30T01:06:41;18.00;99.90
64484;DHT22;50862;51.642;7.964;2022-07-30T01:09:09;17.20;99.90
64484;DHT22;50862;51.642;7.964;2022-07-30T01:11:39;17.30;99.90
64484;DHT22;50862;51.642;7.964;2022-07-30T01:14:08;17.30;99.90
64484;DHT22;50862;51.642;7.964;2022-07-30T01:16:40;16.60;99.90
64484;DHT22;50862;51.642;7.964;2022-07-30T01:19:13;17.20;99.90
64484;DHT22;50862;51.642;7.964;2022-07-30T01:22:16;17.10;99.90
64484;DHT22;50862;51.642;7.964;2022-07-30T01:24:52;17.10;99.90
64484;DHT22;50862;51.642;7.964;2022-07-30T01:27:25;17.00;99.90
64484;DHT22;50862;51.642;7.964;2022-07-30T01:29:55;16.80;99.90
64484;DHT22;50862;51.642;7.964;2022-07-30T01:32:24;17.10;99.90
64484;DHT22;50862;51.642;7.964;2022-07-30T01:34:54;17.20;99.90
64484;DHT22;50862;51.642;7.964;2022-07-30T01:37:25;16.90;99.90
64484;DHT22;50862;51.642;7.964;2022-07-30T01:39:54;16.70;99.90
64484;DHT22;50862;51.642;7.964;2022-07-30T01:42:26;16.70;99.90
64484;DHT22;50862;51.642;7.964;2022-07-30T01:44:56;16.70;99.90
64484;DHT22;50862;51.642;7.964;2022-07-30T01:47:27;16.90;99.90
64484;DHT22;50862;51.642;7.964;2022-07-30T01:49:56;16.80;99.90
64484;DHT22;50862;51.642;7.964;2022-07-30T01:52:27;16.90;99.90
64484;DHT22;50862;51.642;7.964;2022-07-30T01:54:58;16.90;99.90
64484;DHT22;50862;51.642;7.964;2022-07-30T01:57:29;16.70;99.90
64484;DHT22;50862;51.642;7.964;2022-07-30T02:00:01;16.80;99.90
64484;DHT22;50862;51.642;7.964;2022-07-30T02:02:30;17.10;99.90
64484;DHT22;50862;51.642;7.964;2022-07-30T02:04:58;16.90;99.90
64484;DHT22;50862;51.642;7.964;2022-07-30T02:07:32;17.10;99.90
64484;DHT22;50862;51.642;7.964;2022-07-30T02:10:05;17.00;99.90
64484;DHT22;50862;51.642;7.964;2022-07-30T02:12:38;16.80;99.90
64484;DHT22;50862;51.642;7.964;2022-07-30T02:15:12;17.00;99.90
64484;DHT22;50862;51.642;7.964;2022-07-30T02:17:45;16.80;99.90
64484;DHT22;50862;51.642;7.964;2022-07-30T02:20:17;16.90;99.90
64484;DHT22;50862;51.642;7.964;2022-07-30T02:22:53;17.00;99.90
64484;DHT22;50862;51.642;7.964;2022-07-30T02:25:23;16.90;99.90
64484;DHT22;50862;51.642;7.964;2022-07-30T02:27:57;16.90;99.90
64484;DHT22;50862;51.642;7.964;2022-07-30T02:30:30;16.70;99.90
64484;DHT22;50862;51.642;7.964;2022-07-30T02:33:02;16.80;99.90
64484;DHT22;50862;51.642;7.964;2022-07-30T02:35:32;16.50;99.90
64484;DHT22;50862;51.642;7.964;2022-07-30T02:38:01;16.80;99.90
64484;DHT22;50862;51.642;7.964;2022-07-30T02:40:31;16.90;99.90
64484;DHT22;50862;51.642;7.964;2022-07-30T02:43:01;16.70;99.90
64484;DHT22;50862;51.642;7.964;2022-07-30T02:45:29;16.70;99.90
64484;DHT22;50862;51.642;7.964;2022-07-30T02:48:00;16.60;99.90
64484;DHT22;50862;51.642;7.964;2022-07-30T02:50:30;16.70;99.90
64484;DHT22;50862;51.642;7.964;2022-07-30T02:53:00;16.90;99.90
64484;DHT22;50862;51.642;7.964;2022-07-30T02:55:30;17.20;99.90
64484;DHT22;50862;51.642;7.964;2022-07-30T02:58:04;17.10;99.90
64484;DHT22;50862;51.642;7.964;2022-07-30T03:00:34;16.90;99.90
64484;DHT22;50862;51.642;7.964;2022-07-30T03:03:05;17.00;99.90
64484;DHT22;50862;51.642;7.964;2022-07-30T03:05:34;16.80;99.90
64484;DHT22;50862;51.642;7.964;2022-07-30T03:08:03;16.90;99.90
64484;DHT22;50862;51.642;7.964;2022-07-30T03:10:35;16.80;99.90
64484;DHT22;50862;51.642;7.964;2022-07-30T03:13:06;16.90;99.90
64484;DHT22;50862;51.642;7.964;2022-07-30T03:15:36;17.20;99.90
64484;DHT22;50862;51.642;7.964;2022-07-30T03:18:07;16.90;99.90
64484;DHT22;50862;51.642;7.964;2022-07-30T03:20:38;17.20;99.90
64484;DHT22;50862;51.642;7.964;2022-07-30T03:23:07;16.40;99.90
64484;DHT22;50862;51.642;7.964;2022-07-30T03:25:38;16.90;99.90
64484;DHT22;50862;51.642;7.964;2022-07-30T03:28:08;16.10;99.90
64484;DHT22;50862;51.642;7.964;2022-07-30T03:30:37;15.70;99.90
64484;DHT22;50862;51.642;7.964;2022-07-30T03:33:05;16.30;99.90
64484;DHT22;50862;51.642;7.964;2022-07-30T03:35:34;16.30;99.90
64484;DHT22;50862;51.642;7.964;2022-07-30T03:38:03;16.70;99.90
64484;DHT22;50862;51.642;7.964;2022-07-30T03:40:32;15.80;99.90
64484;DHT22;50862;51.642;7.964;2022-07-30T03:45:31;15.40;99.90
64484;DHT22;50862;51.642;7.964;2022-07-30T03:48:00;15.40;99.90
64484;DHT22;50862;51.642;7.964;2022-07-30T03:52:57;15.50;99.90
64484;DHT22;50862;51.642;7.964;2022-07-30T03:57:54;16.20;99.90
64484;DHT22;50862;51.642;7.964;2022-07-30T04:00:23;15.80;99.90
64484;DHT22;50862;51.642;7.964;2022-07-30T04:02:53;15.40;99.90
64484;DHT22;50862;51.642;7.964;2022-07-30T04:05:22;15.70;99.90
64484;DHT22;50862;51.642;7.964;2022-07-30T04:07:50;16.30;99.90
64484;DHT22;50862;51.642;7.964;2022-07-30T04:10:19;15.90;99.90
64484;DHT22;50862;51.642;7.964;2022-07-30T04:12:47;15.80;99.90
64484;DHT22;50862;51.642;7.964;2022-07-30T04:15:16;15.60;99.90
64484;DHT22;50862;51.642;7.964;2022-07-30T04:18:05;15.90;99.90
64484;DHT22;50862;51.642;7.964;2022-07-30T04:20:39;15.70;99.90
64484;DHT22;50862;51.642;7.964;2022-07-30T04:23:08;15.40;99.90
64484;DHT22;50862;51.642;7.964;2022-07-30T04:25:38;15.80;99.90
64484;DHT22;50862;51.642;7.964;2022-07-30T04:28:08;16.50;99.90
64484;DHT22;50862;51.642;7.964;2022-07-30T04:33:07;16.00;99.90
64484;DHT22;50862;51.642;7.964;2022-07-30T04:38:18;16.20;99.90
64484;DHT22;50862;51.642;7.964;2022-07-30T04:40:47;16.10;99.90
64484;DHT22;50862;51.642;7.964;2022-07-30T04:43:15;16.10;99.90
64484;DHT22;50862;51.642;7.964;2022-07-30T04:45:43;16.60;99.90
64484;DHT22;50862;51.642;7.964;2022-07-30T04:48:13;15.70;99.90
64484;DHT22;50862;51.642;7.964;2022-07-30T04:50:45;16.40;99.90
64484;DHT22;50862;51.642;7.964;2022-07-30T04:53:16;16.30;99.90
64484;DHT22;50862;51.642;7.964;2022-07-30T04:55:47;16.80;99.90
64484;DHT22;50862;51.642;7.964;2022-07-30T04:58:19;16.40;99.90
64484;DHT22;50862;51.642;7.964;2022-07-30T05:00:48;16.90;99.90
64484;DHT22;50862;51.642;7.964;2022-07-30T05:03:20;16.60;99.90
64484;DHT22;50862;51.642;7.964;2022-07-30T05:05:50;16.60;99.90
64484;DHT22;50862;51.642;7.964;2022-07-30T05:08:23;16.90;99.90
64484;DHT22;50862;51.642;7.964;2022-07-30T05:10:52;17.30;99.90
64484;DHT22;50862;51.642;7.964;2022-07-30T05:13:20;16.70;99.90
64484;DHT22;50862;51.642;7.964;2022-07-30T05:15:59;16.80;99.90
64484;DHT22;50862;51.642;7.964;2022-07-30T05:18:29;16.60;99.90
64484;DHT22;50862;51.642;7.964;2022-07-30T05:23:26;16.20;99.90
64484;DHT22;50862;51.642;7.964;2022-07-30T05:28:22;16.70;99.90
64484;DHT22;50862;51.642;7.964;2022-07-30T05:30:53;16.10;99.90
64484;DHT22;50862;51.642;7.964;2022-07-30T05:36:09;17.20;99.90
64484;DHT22;50862;51.642;7.964;2022-07-30T05:38:38;16.50;99.90
64484;DHT22;50862;51.642;7.964;2022-07-30T05:41:06;16.80;99.90
64484;DHT22;50862;51.642;7.964;2022-07-30T05:43:54;16.90;99.90
64484;DHT22;50862;51.642;7.964;2022-07-30T05:46:23;16.60;99.90
64484;DHT22;50862;51.642;7.964;2022-07-30T05:48:51;17.30;99.90
64484;DHT22;50862;51.642;7.964;2022-07-30T05:51:20;16.90;99.90
64484;DHT22;50862;51.642;7.964;2022-07-30T05:53:48;16.90;99.90
64484;DHT22;50862;51.642;7.964;2022-07-30T05:56:17;17.20;99.90
64484;DHT22;50862;51.642;7.964;2022-07-30T05:58:45;17.30;99.90
64484;DHT22;50862;51.642;7.964;2022-07-30T06:01:13;17.20;99.90
64484;DHT22;50862;51.642;7.964;2022-07-30T06:06:10;18.10;99.90
64484;DHT22;50862;51.642;7.964;2022-07-30T06:08:39;17.50;99.90
64484;DHT22;50862;51.642;7.964;2022-07-30T06:13:36;17.60;99.90
64484;DHT22;50862;51.642;7.964;2022-07-30T06:16:04;18.30;99.90
64484;DHT22;50862;51.642;7.964;2022-07-30T06:18:33;18.50;99.90
64484;DHT22;50862;51.642;7.964;2022-07-30T06:21:01;18.10;99.90
64484;DHT22;50862;51.642;7.964;2022-07-30T06:23:29;18.40;99.90
64484;DHT22;50862;51.642;7.964;2022-07-30T06:25:58;18.40;99.90
64484;DHT22;50862;51.642;7.964;2022-07-30T06:28:27;18.40;99.90
64484;DHT22;50862;51.642;7.964;2022-07-30T06:31:05;18.50;99.90
64484;DHT22;50862;51.642;7.964;2022-07-30T06:33:33;18.40;99.90
64484;DHT22;50862;51.642;7.964;2022-07-30T06:36:01;18.70;99.90
64484;DHT22;50862;51.642;7.964;2022-07-30T06:38:29;18.30;99.90
64484;DHT22;50862;51.642;7.964;2022-07-30T06:40:59;19.00;99.90
64484;DHT22;50862;51.642;7.964;2022-07-30T06:43:30;18.60;99.90
64484;DHT22;50862;51.642;7.964;2022-07-30T06:45:58;19.20;99.90
64484;DHT22;50862;51.642;7.964;2022-07-30T06:48:28;19.00;99.90
64484;DHT22;50862;51.642;7.964;2022-07-30T06:50:56;19.20;99.90
64484;DHT22;50862;51.642;7.964;2022-07-30T06:53:24;20.00;99.90
64484;DHT22;50862;51.642;7.964;2022-07-30T06:55:53;18.60;99.90
64484;DHT22;50862;51.642;7.964;2022-07-30T06:58:27;19.10;99.90
64484;DHT22;50862;51.642;7.964;2022-07-30T07:00:56;20.30;99.90
64484;DHT22;50862;51.642;7.964;2022-07-30T07:06:07;19.50;99.90
64484;DHT22;50862;51.642;7.964;2022-07-30T07:08:36;19.10;99.90
64484;DHT22;50862;51.642;7.964;2022-07-30T07:13:34;20.00;99.90
64484;DHT22;50862;51.642;7.964;2022-07-30T07:16:03;20.60;99.90
64484;DHT22;50862;51.642;7.964;2022-07-30T07:18:31;20.60;99.90
64484;DHT22;50862;51.642;7.964;2022-07-30T07:20:59;20.50;99.90
64484;DHT22;50862;51.642;7.964;2022-07-30T07:23:27;20.60;99.50
64484;DHT22;50862;51.642;7.964;2022-07-30T07:26:07;20.90;98.60
64484;DHT22;50862;51.642;7.964;2022-07-30T07:28:37;21.40;98.60
64484;DHT22;50862;51.642;7.964;2022-07-30T07:31:07;22.60;94.50
64484;DHT22;50862;51.642;7.964;2022-07-30T07:33:35;22.60;91.30
64484;DHT22;50862;51.642;7.964;2022-07-30T07:36:04;22.40;90.60
64484;DHT22;50862;51.642;7.964;2022-07-30T07:38:32;22.70;90.10
64484;DHT22;50862;51.642;7.964;2022-07-30T07:41:02;23.60;90.20
64484;DHT22;50862;51.642;7.964;2022-07-30T07:43:31;23.20;90.20
64484;DHT22;50862;51.642;7.964;2022-07-30T07:46:00;23.60;85.90
64484;DHT22;50862;51.642;7.964;2022-07-30T07:48:29;22.90;84.70
64484;DHT22;50862;51.642;7.964;2022-07-30T07:50:58;22.60;84.90
64484;DHT22;50862;51.642;7.964;2022-07-30T07:53:26;23.20;85.90
64484;DHT22;50862;51.642;7.964;2022-07-30T07:55:55;23.30;83.30
64484;DHT22;50862;51.642;7.964;2022-07-30T07:58:23;23.60;84.20
64484;DHT22;50862;51.642;7.964;2022-07-30T08:00:52;24.10;82.60
64484;DHT22;50862;51.642;7.964;2022-07-30T08:03:22;23.80;77.90
64484;DHT22;50862;51.642;7.964;2022-07-30T08:05:50;23.50;80.50
64484;DHT22;50862;51.642;7.964;2022-07-30T08:08:32;23.50;80.00
64484;DHT22;50862;51.642;7.964;2022-07-30T08:11:03;23.90;78.90
64484;DHT22;50862;51.642;7.964;2022-07-30T08:13:32;24.30;78.20
64484;DHT22;50862;51.642;7.964;2022-07-30T08:16:18;24.90;75.10
64484;DHT22;50862;51.642;7.964;2022-07-30T08:18:48;25.10;72.40
64484;DHT22;50862;51.642;7.964;2022-07-30T08:21:16;25.50;70.20
64484;DHT22;50862;51.642;7.964;2022-07-30T08:23:44;25.60;68.30
64484;DHT22;50862;51.642;7.964;2022-07-30T08:26:13;25.80;67.20
64484;DHT22;50862;51.642;7.964;2022-07-30T08:28:41;26.20;65.80
64484;DHT22;50862;51.642;7.964;2022-07-30T08:31:11;26.30;64.60
64484;DHT22;50862;51.642;7.964;2022-07-30T08:33:40;26.40;66.40
64484;DHT22;50862;51.642;7.964;2022-07-30T08:36:09;26.10;64.70
64484;DHT22;50862;51.642;7.964;2022-07-30T08:38:38;25.50;66.10
64484;DHT22;50862;51.642;7.964;2022-07-30T08:41:06;25.50;66.90
64484;DHT22;50862;51.642;7.964;2022-07-30T08:43:35;25.50;66.70
64484;DHT22;50862;51.642;7.964;2022-07-30T08:46:06;25.70;65.70
64484;DHT22;50862;51.642;7.964;2022-07-30T08:48:36;26.20;64.30
64484;DHT22;50862;51.642;7.964;2022-07-30T08:51:05;26.20;66.00
64484;DHT22;50862;51.642;7.964;2022-07-30T08:53:36;26.20;65.80
64484;DHT22;50862;51.642;7.964;2022-07-30T08:56:05;25.90;64.00
64484;DHT22;50862;51.642;7.964;2022-07-30T08:58:34;25.70;65.30
64484;DHT22;50862;51.642;7.964;2022-07-30T09:01:05;25.40;64.60
64484;DHT22;50862;51.642;7.964;2022-07-30T09:03:35;25.10;65.00
64484;DHT22;50862;51.642;7.964;2022-07-30T09:06:10;25.40;70.60
64484;DHT22;50862;51.642;7.964;2022-07-30T09:08:40;25.60;69.70
64484;DHT22;50862;51.642;7.964;2022-07-30T09:11:08;25.80;66.80
64484;DHT22;50862;51.642;7.964;2022-07-30T09:13:38;25.70;68.30
64484;DHT22;50862;51.642;7.964;2022-07-30T09:16:18;25.40;66.10
64484;DHT22;50862;51.642;7.964;2022-07-30T09:18:46;25.70;65.30
64484;DHT22;50862;51.642;7.964;2022-07-30T09:21:16;25.60;68.30
64484;DHT22;50862;51.642;7.964;2022-07-30T09:23:57;25.40;70.50
64484;DHT22;50862;51.642;7.964;2022-07-30T09:26:26;24.80;71.10
64484;DHT22;50862;51.642;7.964;2022-07-30T09:28:55;25.00;72.50
64484;DHT22;50862;51.642;7.964;2022-07-30T09:31:55;25.30;73.30
64484;DHT22;50862;51.642;7.964;2022-07-30T09:34:25;25.30;70.80
64484;DHT22;50862;51.642;7.964;2022-07-30T09:36:55;24.90;74.40
64484;DHT22;50862;51.642;7.964;2022-07-30T09:39:34;24.70;74.50
64484;DHT22;50862;51.642;7.964;2022-07-30T09:42:04;25.10;74.20
64484;DHT22;50862;51.642;7.964;2022-07-30T09:44:43;25.20;72.90
64484;DHT22;50862;51.642;7.964;2022-07-30T09:47:28;25.20;71.90
64484;DHT22;50862;51.642;7.964;2022-07-30T09:50:03;25.10;71.60
64484;DHT22;50862;51.642;7.964;2022-07-30T09:52:33;25.00;72.00
64484;DHT22;50862;51.642;7.964;2022-07-30T09:55:12;25.00;70.50
64484;DHT22;50862;51.642;7.964;2022-07-30T09:57:54;25.10;69.60
64484;DHT22;50862;51.642;7.964;2022-07-30T10:00:26;25.50;72.30
64484;DHT22;50862;51.642;7.964;2022-07-30T10:02:54;25.50;70.20
64484;DHT22;50862;51.642;7.964;2022-07-30T10:05:23;25.10;65.40
64484;DHT22;50862;51.642;7.964;2022-07-30T10:07:53;25.30;68.20
64484;DHT22;50862;51.642;7.964;2022-07-30T10:10:25;25.10;70.60
64484;DHT22;50862;51.642;7.964;2022-07-30T10:13:00;25.60;70.80
64484;DHT22;50862;51.642;7.964;2022-07-30T10:15:32;25.60;69.30
64484;DHT22;50862;51.642;7.964;2022-07-30T10:18:02;25.30;68.70
64484;DHT22;50862;51.642;7.964;2022-07-30T10:20:33;25.30;68.50
64484;DHT22;50862;51.642;7.964;2022-07-30T10:23:01;25.50;67.30
64484;DHT22;50862;51.642;7.964;2022-07-30T10:25:37;25.40;67.20
64484;DHT22;50862;51.642;7.964;2022-07-30T10:28:21;25.50;66.80
64484;DHT22;50862;51.642;7.964;2022-07-30T10:30:50;25.60;63.20
64484;DHT22;50862;51.642;7.964;2022-07-30T10:33:21;25.60;63.90
64484;DHT22;50862;51.642;7.964;2022-07-30T10:36:09;25.70;65.50
64484;DHT22;50862;51.642;7.964;2022-07-30T10:38:41;25.80;63.80
64484;DHT22;50862;51.642;7.964;2022-07-30T10:41:28;25.80;58.90
64484;DHT22;50862;51.642;7.964;2022-07-30T10:44:44;25.80;59.20
64484;DHT22;50862;51.642;7.964;2022-07-30T10:47:16;25.70;58.30
64484;DHT22;50862;51.642;7.964;2022-07-30T10:50:04;25.80;59.30
64484;DHT22;50862;51.642;7.964;2022-07-30T10:52:47;26.10;60.10
64484;DHT22;50862;51.642;7.964;2022-07-30T10:55:19;26.20;55.50
64484;DHT22;50862;51.642;7.964;2022-07-30T10:58:07;26.30;57.50
64484;DHT22;50862;51.642;7.964;2022-07-30T11:00:58;26.40;56.40
64484;DHT22;50862;51.642;7.964;2022-07-30T11:03:27;26.50;56.20
64484;DHT22;50862;51.642;7.964;2022-07-30T11:06:24;26.60;55.80
64484;DHT22;50862;51.642;7.964;2022-07-30T11:08:53;26.50;53.30
64484;DHT22;50862;51.642;7.964;2022-07-30T11:11:43;26.60;55.40
64484;DHT22;50862;51.642;7.964;2022-07-30T11:14:55;26.40;53.60
64484;DHT22;50862;51.642;7.964;2022-07-30T11:18:05;26.10;55.10
64484;DHT22;50862;51.642;7.964;2022-07-30T11:20:39;26.40;53.80
64484;DHT22;50862;51.642;7.964;2022-07-30T11:23:35;26.30;54.70
64484;DHT22;50862;51.642;7.964;2022-07-30T11:26:05;26.40;55.00
64484;DHT22;50862;51.642;7.964;2022-07-30T11:28:42;26.70;53.10
64484;DHT22;50862;51.642;7.964;2022-07-30T11:31:30;26.60;53.60
64484;DHT22;50862;51.642;7.964;2022-07-30T11:34:27;26.30;52.80
64484;DHT22;50862;51.642;7.964;2022-07-30T11:37:08;26.50;55.00
64484;DHT22;50862;51.642;7.964;2022-07-30T11:40:07;26.70;53.50
64484;DHT22;50862;51.642;7.964;2022-07-30T11:42:38;26.50;52.50
64484;DHT22;50862;51.642;7.964;2022-07-30T11:45:26;26.50;53.80
64484;DHT22;50862;51.642;7.964;2022-07-30T11:47:58;26.20;54.60
64484;DHT22;50862;51.642;7.964;2022-07-30T11:50:31;26.50;54.80
64484;DHT22;50862;51.642;7.964;2022-07-30T11:53:02;26.60;53.60
64484;DHT22;50862;51.642;7.964;2022-07-30T11:55:33;26.40;53.00
64484;DHT22;50862;51.642;7.964;2022-07-30T11:58:03;26.40;52.90
64484;DHT22;50862;51.642;7.964;2022-07-30T12:00:37;26.30;53.10
64484;DHT22;50862;51.642;7.964;2022-07-30T12:03:11;26.20;52.70
64484;DHT22;50862;51.642;7.964;2022-07-30T12:05:41;25.90;52.40
64484;DHT22;50862;51.642;7.964;2022-07-30T12:08:10;25.70;53.50
64484;DHT22;50862;51.642;7.964;2022-07-30T12:10:59;25.90;54.00
64484;DHT22;50862;51.642;7.964;2022-07-30T12:13:28;26.50;53.80
64484;DHT22;50862;51.642;7.964;2022-07-30T12:16:13;26.80;51.80
64484;DHT22;50862;51.642;7.964;2022-07-30T12:18:45;27.00;52.30
64484;DHT22;50862;51.642;7.964;2022-07-30T12:21:14;27.00;51.70
64484;DHT22;50862;51.642;7.964;2022-07-30T12:23:53;27.20;51.20
64484;DHT22;50862;51.642;7.964;2022-07-30T12:26:22;27.10;50.90
64484;DHT22;50862;51.642;7.964;2022-07-30T12:28:53;27.20;49.90
64484;DHT22;50862;51.642;7.964;2022-07-30T12:31:22;27.10;49.50
64484;DHT22;50862;51.642;7.964;2022-07-30T12:33:51;27.20;51.00
64484;DHT22;50862;51.642;7.964;2022-07-30T12:36:27;27.40;49.50
64484;DHT22;50862;51.642;7.964;2022-07-30T12:38:57;27.60;50.00
64484;DHT22;50862;51.642;7.964;2022-07-30T12:41:42;27.40;48.90
64484;DHT22;50862;51.642;7.964;2022-07-30T12:44:33;27.10;49.30
64484;DHT22;50862;51.642;7.964;2022-07-30T12:47:01;27.80;49.40
64484;DHT22;50862;51.642;7.964;2022-07-30T12:49:32;27.70;48.70
64484;DHT22;50862;51.642;7.964;2022-07-30T12:52:19;27.70;48.10
64484;DHT22;50862;51.642;7.964;2022-07-30T12:54:59;27.70;48.90
64484;DHT22;50862;51.642;7.964;2022-07-30T13:00:17;28.30;47.30
64484;DHT22;50862;51.642;7.964;2022-07-30T13:02:45;28.50;46.60
64484;DHT22;50862;51.642;7.964;2022-07-30T13:05:15;28.00;47.80
64484;DHT22;50862;51.642;7.964;2022-07-30T13:07:56;27.60;48.80
64484;DHT22;50862;51.642;7.964;2022-07-30T13:10:25;27.30;48.90
64484;DHT22;50862;51.642;7.964;2022-07-30T13:12:57;27.20;52.00
64484;DHT22;50862;51.642;7.964;2022-07-30T13:15:25;27.50;51.60
64484;DHT22;50862;51.642;7.964;2022-07-30T13:17:53;27.70;50.30
64484;DHT22;50862;51.642;7.964;2022-07-30T13:20:23;27.90;50.20
64484;DHT22;50862;51.642;7.964;2022-07-30T13:22:51;27.70;49.00
64484;DHT22;50862;51.642;7.964;2022-07-30T13:25:25;27.20;49.80
64484;DHT22;50862;51.642;7.964;2022-07-30T13:28:06;27.10;50.70
64484;DHT22;50862;51.642;7.964;2022-07-30T13:30:34;26.90;50.70
64484;DHT22;50862;51.642;7.964;2022-07-30T13:33:02;26.70;51.90
64484;DHT22;50862;51.642;7.964;2022-07-30T13:35:32;26.80;51.20
64484;DHT22;50862;51.642;7.964;2022-07-30T13:38:00;26.90;51.40
64484;DHT22;50862;51.642;7.964;2022-07-30T13:40:28;26.90;52.70
64484;DHT22;50862;51.642;7.964;2022-07-30T13:42:58;27.10;51.10
64484;DHT22;50862;51.642;7.964;2022-07-30T13:45:26;27.00;50.30
64484;DHT22;50862;51.642;7.964;2022-07-30T13:47:55;26.90;50.30
64484;DHT22;50862;51.642;7.964;2022-07-30T13:50:23;26.70;48.80
64484;DHT22;50862;51.642;7.964;2022-07-30T13:52:53;26.50;49.00
64484;DHT22;50862;51.642;7.964;2022-07-30T13:55:28;26.40;48.90
64484;DHT22;50862;51.642;7.964;2022-07-30T13:57:56;26.60;48.60
64484;DHT22;50862;51.642;7.964;2022-07-30T14:00:24;26.60;49.30
64484;DHT22;50862;51.642;7.964;2022-07-30T14:02:59;26.80;47.80
64484;DHT22;50862;51.642;7.964;2022-07-30T14:05:27;27.00;46.50
64484;DHT22;50862;51.642;7.964;2022-07-30T14:07:57;27.00;47.90
64484;DHT22;50862;51.642;7.964;2022-07-30T14:10:25;27.10;46.70
64484;DHT22;50862;51.642;7.964;2022-07-30T14:12:54;27.00;46.80
64484;DHT22;50862;51.642;7.964;2022-07-30T14:15:24;27.20;47.90
64484;DHT22;50862;51.642;7.964;2022-07-30T14:17:52;27.40;47.40
64484;DHT22;50862;51.642;7.964;2022-07-30T14:20:23;27.50;48.50
64484;DHT22;50862;51.642;7.964;2022-07-30T14:22:55;27.50;46.80
64484;DHT22;50862;51.642;7.964;2022-07-30T14:25:24;27.40;44.80
64484;DHT22;50862;51.642;7.964;2022-07-30T14:27:52;27.30;45.60
64484;DHT22;50862;51.642;7.964;2022-07-30T14:30:21;27.40;46.40
64484;DHT22;50862;51.642;7.964;2022-07-30T14:32:50;27.80;45.50
64484;DHT22;50862;51.642;7.964;2022-07-30T14:35:27;27.90;44.90
64484;DHT22;50862;51.642;7.964;2022-07-30T14:37:55;27.80;45.00
64484;DHT22;50862;51.642;7.964;2022-07-30T14:40:25;27.40;43.60
64484;DHT22;50862;51.642;7.964;2022-07-30T14:42:53;27.60;42.80
64484;DHT22;50862;51.642;7.964;2022-07-30T14:45:23;27.80;42.90
64484;DHT22;50862;51.642;7.964;2022-07-30T14:47:51;28.10;43.50
64484;DHT22;50862;51.642;7.964;2022-07-30T14:50:20;28.20;44.20
64484;DHT22;50862;51.642;7.964;2022-07-30T14:52:48;28.30;42.90
64484;DHT22;50862;51.642;7.964;2022-07-30T14:55:17;28.00;42.10
64484;DHT22;50862;51.642;7.964;2022-07-30T14:57:47;27.90;42.70
64484;DHT22;50862;51.642;7.964;2022-07-30T15:00:15;28.10;42.60
64484;DHT22;50862;51.642;7.964;2022-07-30T15:02:44;28.20;43.30
64484;DHT22;50862;51.642;7.964;2022-07-30T15:05:12;28.20;42.90
64484;DHT22;50862;51.642;7.964;2022-07-30T15:07:40;28.20;42.40
64484;DHT22;50862;51.642;7.964;2022-07-30T15:10:08;28.30;41.80
64484;DHT22;50862;51.642;7.964;2022-07-30T15:12:36;28.10;41.40
64484;DHT22;50862;51.642;7.964;2022-07-30T15:15:07;27.90;41.50
64484;DHT22;50862;51.642;7.964;2022-07-30T15:17:39;27.80;41.20
64484;DHT22;50862;51.642;7.964;2022-07-30T15:20:08;28.00;41.50
64484;DHT22;50862;51.642;7.964;2022-07-30T15:22:37;28.10;42.10
64484;DHT22;50862;51.642;7.964;2022-07-30T15:25:06;27.90;41.70
64484;DHT22;50862;51.642;7.964;2022-07-30T15:27:34;27.90;41.10
64484;DHT22;50862;51.642;7.964;2022-07-30T15:30:04;27.40;41.30
64484;DHT22;50862;51.642;7.964;2022-07-30T15:32:33;27.80;41.40
64484;DHT22;50862;51.642;7.964;2022-07-30T15:35:03;27.80;41.00
64484;DHT22;50862;51.642;7.964;2022-07-30T15:37:36;27.80;42.90
64484;DHT22;50862;51.642;7.964;2022-07-30T15:40:05;27.90;41.30
64484;DHT22;50862;51.642;7.964;2022-07-30T15:42:34;27.90;40.40
64484;DHT22;50862;51.642;7.964;2022-07-30T15:45:02;27.70;40.10
64484;DHT22;50862;51.642;7.964;2022-07-30T15:47:46;27.40;39.70
64484;DHT22;50862;51.642;7.964;2022-07-30T15:50:15;27.70;40.60
64484;DHT22;50862;51.642;7.964;2022-07-30T15:52:43;27.80;39.60
64484;DHT22;50862;51.642;7.964;2022-07-30T15:55:12;27.60;39.40
64484;DHT22;50862;51.642;7.964;2022-07-30T15:57:40;27.80;39.70
64484;DHT22;50862;51.642;7.964;2022-07-30T16:00:10;28.20;38.30
64484;DHT22;50862;51.642;7.964;2022-07-30T16:02:38;28.40;37.60
64484;DHT22;50862;51.642;7.964;2022-07-30T16:05:09;28.70;37.60
64484;DHT22;50862;51.642;7.964;2022-07-30T16:07:40;28.70;37.50
64484;DHT22;50862;51.642;7.964;2022-07-30T16:10:09;28.70;35.90
64484;DHT22;50862;51.642;7.964;2022-07-30T16:12:37;28.60;34.30
64484;DHT22;50862;51.642;7.964;2022-07-30T16:15:07;28.30;34.70
64484;DHT22;50862;51.642;7.964;2022-07-30T16:17:35;28.30;35.30
64484;DHT22;50862;51.642;7.964;2022-07-30T16:20:04;28.00;36.20
64484;DHT22;50862;51.642;7.964;2022-07-30T16:22:34;27.90;37.20
64484;DHT22;50862;51.642;7.964;2022-07-30T16:25:02;27.90;36.90
64484;DHT22;50862;51.642;7.964;2022-07-30T16:27:31;27.60;37.20
64484;DHT22;50862;51.642;7.964;2022-07-30T16:29:59;27.40;38.30
64484;DHT22;50862;51.642;7.964;2022-07-30T16:32:27;27.20;38.80